Time;durP1;ratioP1;P1;durP2;ratioP2;P2;SDS_P1;SDS_P2;PMS_P1;PMS_P2;Temp;Humidity;BMP_temperature;BMP_pressure;BME280_temperature;BME280_humidity;BME280_pressure;Samples;Min_cycle;Max_cycle;Signal;HPM_P1;HPM_P2
2022/11/09 00:01:26;;;;;;;7.53;2.00;;;;;;;;;;5102995;27;20052;-69
2022/11/09 00:03:56;;;;;;;4.30;1.42;;;;;;;;;;5103923;28;20048;-69
2022/11/09 00:06:23;;;;;;;5.32;1.70;;;;;;;;;;5103172;28;20063;-69
2022/11/09 00:08:50;;;;;;;5.55;2.00;;;;;;;;;;5102624;27;20052;-69
2022/11/09 00:11:16;;;;;;;6.18;2.15;;;;;;;;;;5104038;28;20069;-68
2022/11/09 00:13:43;;;;;;;4.65;1.70;;;;;;;;;;5103015;28;20048;-68
2022/11/09 00:16:10;;;;;;;4.80;1.65;;;;;;;;;;5101810;27;20052;-68
2022/11/09 00:18:38;;;;;;;6.55;1.98;;;;;;;;;;5104144;28;20054;-68
2022/11/09 00:21:05;;;;;;;10.43;2.22;;;;;;;;;;5085180;28;20095;-68
2022/11/09 00:23:31;;;;;;;4.15;1.83;;;;;;;;;;5102874;28;20048;-68
2022/11/09 00:26:05;;;;;;;5.70;1.92;;;;;;;;;;5101520;27;20063;-68
2022/11/09 00:28:31;;;;;;;8.10;2.50;;;;;;;;;;5103947;28;20060;-68
2022/11/09 00:31:01;;;;;;;7.47;1.92;;;;;;;;;;5101386;28;20552;-68
2022/11/09 00:33:27;;;;;;;7.70;1.98;;;;;;;;;;5103558;28;20547;-68
2022/11/09 00:35:54;;;;;;;4.95;1.83;;;;;;;;;;5100585;28;20321;-68
2022/11/09 00:38:20;;;;;;;5.00;1.65;;;;;;;;;;5103603;28;20059;-69
2022/11/09 00:40:47;;;;;;;6.05;2.53;;;;;;;;;;5101575;28;20079;-68
2022/11/09 00:43:13;;;;;;;4.97;1.92;;;;;;;;;;5103529;28;20063;-68
2022/11/09 00:45:40;;;;;;;8.27;2.08;;;;;;;;;;5101522;28;20456;-68
2022/11/09 00:48:07;;;;;;;8.10;2.78;;;;;;;;;;5103127;28;20138;-68
2022/11/09 00:50:33;;;;;;;6.65;1.77;;;;;;;;;;5101503;28;20047;-68
2022/11/09 00:53:00;;;;;;;9.75;1.75;;;;;;;;;;5103825;28;20670;-68
2022/11/09 00:55:26;;;;;;;4.53;1.77;;;;;;;;;;5099830;28;20052;-68
2022/11/09 00:57:52;;;;;;;9.13;1.58;;;;;;;;;;5104189;28;20048;-68
2022/11/09 01:00:20;;;;;;;8.60;2.05;;;;;;;;;;5102500;27;20126;-68
2022/11/09 01:02:48;;;;;;;8.57;1.92;;;;;;;;;;5100401;27;20052;-68
2022/11/09 01:05:14;;;;;;;5.43;1.75;;;;;;;;;;5096753;28;20059;-68
2022/11/09 01:07:41;;;;;;;11.20;2.60;;;;;;;;;;5103482;28;20052;-68
2022/11/09 01:10:08;;;;;;;7.57;1.77;;;;;;;;;;5102948;28;20175;-68
2022/11/09 01:12:34;;;;;;;10.07;1.85;;;;;;;;;;5086345;28;20235;-68
2022/11/09 01:15:00;;;;;;;4.82;2.00;;;;;;;;;;5102058;28;20052;-68
2022/11/09 01:17:27;;;;;;;6.65;1.45;;;;;;;;;;5102401;28;20056;-68
2022/11/09 01:19:53;;;;;;;11.65;2.40;;;;;;;;;;5102225;28;20502;-68
2022/11/09 01:22:19;;;;;;;7.22;1.50;;;;;;;;;;5102899;28;20054;-68
2022/11/09 01:24:46;;;;;;;5.63;1.67;;;;;;;;;;5081967;28;20056;-68
2022/11/09 01:27:12;;;;;;;6.85;2.45;;;;;;;;;;5102515;27;20106;-68
2022/11/09 01:29:39;;;;;;;8.40;1.85;;;;;;;;;;5101812;28;20044;-68
2022/11/09 01:32:05;;;;;;;4.90;1.13;;;;;;;;;;5102878;28;20150;-68
2022/11/09 01:34:32;;;;;;;6.10;1.65;;;;;;;;;;5101780;28;20059;-68
2022/11/09 01:36:58;;;;;;;8.57;2.00;;;;;;;;;;5101425;28;20048;-68
2022/11/09 01:39:24;;;;;;;7.93;1.67;;;;;;;;;;5102440;28;20051;-68
2022/11/09 01:41:50;;;;;;;10.07;2.25;;;;;;;;;;5101614;28;20052;-68
2022/11/09 01:44:18;;;;;;;6.38;1.45;;;;;;;;;;5103074;28;20044;-68
2022/11/09 01:46:46;;;;;;;6.93;2.25;;;;;;;;;;5082931;28;20129;-68
2022/11/09 01:49:33;;;;;;;4.78;1.58;;;;;;;;;;5083506;28;20052;-67
2022/11/09 01:52:03;;;;;;;9.50;2.00;;;;;;;;;;5075707;28;20052;-68
2022/11/09 01:54:30;;;;;;;6.68;2.25;;;;;;;;;;5096769;28;20052;-68
2022/11/09 01:57:00;;;;;;;7.40;1.80;;;;;;;;;;5092935;28;20048;-68
2022/11/09 01:59:29;;;;;;;5.88;1.60;;;;;;;;;;5101350;28;20088;-68
2022/11/09 02:01:55;;;;;;;7.80;1.75;;;;;;;;;;5102237;27;20547;-68
2022/11/09 02:04:23;;;;;;;8.15;1.83;;;;;;;;;;5101861;28;20044;-68
2022/11/09 02:06:50;;;;;;;10.30;1.83;;;;;;;;;;5101058;28;20060;-68
2022/11/09 02:09:22;;;;;;;5.72;2.05;;;;;;;;;;5102266;28;20052;-68
2022/11/09 02:11:48;;;;;;;9.07;1.50;;;;;;;;;;5100822;28;20398;-68
2022/11/09 02:14:15;;;;;;;12.02;2.30;;;;;;;;;;5101497;28;20051;-69
2022/11/09 02:16:41;;;;;;;12.32;1.48;;;;;;;;;;5098940;28;20048;-68
2022/11/09 02:19:08;;;;;;;10.25;1.70;;;;;;;;;;5101825;28;20052;-69
2022/11/09 02:21:35;;;;;;;5.30;1.45;;;;;;;;;;5103997;27;20051;-68
2022/11/09 02:24:01;;;;;;;9.27;2.80;;;;;;;;;;5105073;28;20552;-68
2022/11/09 02:26:30;;;;;;;6.68;1.80;;;;;;;;;;5105518;28;20052;-69
2022/11/09 02:28:58;;;;;;;7.47;1.85;;;;;;;;;;5104970;28;20056;-69
2022/11/09 02:31:26;;;;;;;5.90;1.63;;;;;;;;;;5088369;28;20048;-68
2022/11/09 02:33:54;;;;;;;8.55;1.33;;;;;;;;;;5105401;28;20102;-69
2022/11/09 02:36:21;;;;;;;12.80;2.05;;;;;;;;;;5100189;28;20044;-69
2022/11/09 02:38:48;;;;;;;7.93;1.60;;;;;;;;;;5106587;28;20589;-68
2022/11/09 02:41:15;;;;;;;12.75;2.28;;;;;;;;;;5104643;28;20044;-69
2022/11/09 02:43:41;;;;;;;6.85;1.50;;;;;;;;;;5105763;28;20052;-69
2022/11/09 02:46:08;;;;;;;2.85;1.25;;;;;;;;;;5103058;28;20082;-69
2022/11/09 02:48:34;;;;;;;6.68;1.75;;;;;;;;;;5103699;28;20604;-69
2022/11/09 02:51:00;;;;;;;5.10;1.42;;;;;;;;;;5105274;28;20517;-68
2022/11/09 02:53:27;;;;;;;5.20;1.35;;;;;;;;;;5104701;28;20539;-69
2022/11/09 02:55:53;;;;;;;9.13;1.90;;;;;;;;;;5082910;27;20052;-69
2022/11/09 02:58:20;;;;;;;6.57;3.05;;;;;;;;;;5103105;28;20143;-68
2022/11/09 03:00:46;;;;;;;7.65;1.77;;;;;;;;;;5104479;28;20090;-68
2022/11/09 03:03:12;;;;;;;10.55;2.47;;;;;;;;;;5104096;28;20056;-68
2022/11/09 03:05:39;;;;;;;10.80;3.17;;;;;;;;;;5102553;27;20586;-68
2022/11/09 03:08:05;;;;;;;5.45;2.45;;;;;;;;;;5104162;28;20407;-69
2022/11/09 03:10:31;;;;;;;4.03;1.50;;;;;;;;;;5103510;28;20059;-68
2022/11/09 03:12:57;;;;;;;8.25;3.05;;;;;;;;;;5102683;28;20522;-68
2022/11/09 03:15:24;;;;;;;3.15;1.40;;;;;;;;;;5104896;27;20427;-68
2022/11/09 03:17:50;;;;;;;6.72;1.70;;;;;;;;;;5103859;27;20056;-68
2022/11/09 03:20:16;;;;;;;9.27;2.40;;;;;;;;;;5086779;28;20532;-68
2022/11/09 03:22:42;;;;;;;7.38;2.20;;;;;;;;;;5105172;28;20052;-68
2022/11/09 03:25:09;;;;;;;6.93;1.77;;;;;;;;;;5103929;27;20059;-68
2022/11/09 03:27:35;;;;;;;4.38;1.70;;;;;;;;;;5103474;28;20091;-69
2022/11/09 03:30:02;;;;;;;4.25;2.03;;;;;;;;;;5103470;28;20067;-68
2022/11/09 03:32:28;;;;;;;6.32;2.10;;;;;;;;;;5103022;27;20055;-69
2022/11/09 03:34:55;;;;;;;10.73;1.90;;;;;;;;;;5103472;28;20055;-68
2022/11/09 03:37:22;;;;;;;4.00;1.67;;;;;;;;;;5103588;28;20052;-69
2022/11/09 03:39:48;;;;;;;9.70;2.58;;;;;;;;;;5104063;27;20059;-68
2022/11/09 03:42:14;;;;;;;12.70;1.77;;;;;;;;;;5102702;28;20109;-68
2022/11/09 03:44:40;;;;;;;3.88;1.50;;;;;;;;;;5101750;28;20521;-68
2022/11/09 03:47:07;;;;;;;7.65;2.20;;;;;;;;;;5102189;27;20055;-68
2022/11/09 03:49:33;;;;;;;5.13;1.55;;;;;;;;;;5103804;28;20521;-68
2022/11/09 03:51:59;;;;;;;3.42;1.40;;;;;;;;;;5104905;27;20078;-68
2022/11/09 03:54:26;;;;;;;6.68;1.85;;;;;;;;;;5104370;27;20151;-68
2022/11/09 03:56:52;;;;;;;10.18;2.17;;;;;;;;;;5103230;28;20048;-68
2022/11/09 03:59:19;;;;;;;5.60;1.38;;;;;;;;;;5103002;28;20067;-68
2022/11/09 04:01:45;;;;;;;4.00;1.95;;;;;;;;;;5104393;28;20490;-68
2022/11/09 04:04:11;;;;;;;7.40;2.10;;;;;;;;;;5104301;28;20056;-68
2022/11/09 04:06:37;;;;;;;9.77;2.20;;;;;;;;;;5101738;28;20060;-68
2022/11/09 04:09:04;;;;;;;8.02;2.85;;;;;;;;;;5084614;28;20053;-68
2022/11/09 04:11:30;;;;;;;5.15;2.65;;;;;;;;;;5103241;28;20469;-68
2022/11/09 04:13:56;;;;;;;8.55;1.73;;;;;;;;;;5103341;28;20167;-68
2022/11/09 04:16:23;;;;;;;8.25;2.03;;;;;;;;;;5101177;28;20044;-68
2022/11/09 04:18:49;;;;;;;8.63;2.00;;;;;;;;;;5103720;28;20044;-68
2022/11/09 04:21:16;;;;;;;9.30;1.60;;;;;;;;;;5102717;27;20056;-68
2022/11/09 04:23:48;;;;;;;7.68;2.10;;;;;;;;;;5103717;28;20461;-69
2022/11/09 04:26:15;;;;;;;6.53;1.83;;;;;;;;;;5100716;27;20056;-68
2022/11/09 04:28:41;;;;;;;7.85;2.03;;;;;;;;;;5099134;28;20044;-68
2022/11/09 04:31:08;;;;;;;10.52;1.50;;;;;;;;;;5098571;28;20048;-68
2022/11/09 04:33:34;;;;;;;6.03;1.73;;;;;;;;;;5098887;27;20075;-68
2022/11/09 04:36:02;;;;;;;11.15;2.22;;;;;;;;;;5095684;28;20405;-69
2022/11/09 04:38:28;;;;;;;6.13;1.83;;;;;;;;;;5092516;28;20049;-68
2022/11/09 04:40:58;;;;;;;7.13;1.60;;;;;;;;;;5092000;28;20060;-68
2022/11/09 04:43:24;;;;;;;6.85;1.88;;;;;;;;;;5070433;28;20514;-68
2022/11/09 04:45:50;;;;;;;5.18;2.00;;;;;;;;;;5099301;28;20096;-68
2022/11/09 04:48:17;;;;;;;4.75;1.42;;;;;;;;;;5103777;28;20044;-67
2022/11/09 04:50:43;;;;;;;5.95;1.73;;;;;;;;;;5102652;28;20456;-67
2022/11/09 04:53:11;;;;;;;6.85;1.90;;;;;;;;;;5107869;27;20051;-68
2022/11/09 04:55:37;;;;;;;5.85;1.25;;;;;;;;;;5101998;27;20048;-68
2022/11/09 04:58:04;;;;;;;9.23;1.80;;;;;;;;;;5103915;28;20064;-68
2022/11/09 05:00:30;;;;;;;6.60;1.52;;;;;;;;;;5103276;28;20071;-68
2022/11/09 05:03:01;;;;;;;4.78;1.45;;;;;;;;;;5099610;28;20059;-68
2022/11/09 05:05:28;;;;;;;7.43;1.75;;;;;;;;;;5103489;28;20437;-68
2022/11/09 05:07:54;;;;;;;5.60;1.30;;;;;;;;;;5100647;28;20063;-69
2022/11/09 05:10:20;;;;;;;7.65;1.55;;;;;;;;;;5107050;27;20058;-68
2022/11/09 05:12:47;;;;;;;10.50;2.58;;;;;;;;;;5103273;27;20520;-68
2022/11/09 05:15:13;;;;;;;4.53;1.38;;;;;;;;;;5102518;28;20474;-68
2022/11/09 05:17:39;;;;;;;5.38;1.40;;;;;;;;;;5104661;27;20052;-68
2022/11/09 05:20:06;;;;;;;6.28;1.23;;;;;;;;;;5102815;27;20044;-69
2022/11/09 05:25:17;;;;;;;7.50;1.70;;;;;;;;;;5103550;28;20063;-68
2022/11/09 05:27:43;;;;;;;5.70;1.60;;;;;;;;;;5111914;27;20047;-68
2022/11/09 05:30:10;;;;;;;9.60;1.95;;;;;;;;;;5112992;27;20052;-68
2022/11/09 05:32:40;;;;;;;6.13;1.45;;;;;;;;;;5101765;28;20338;-68
2022/11/09 05:35:07;;;;;;;5.25;1.67;;;;;;;;;;5102323;28;20044;-68
2022/11/09 05:37:33;;;;;;;7.00;1.50;;;;;;;;;;5104087;28;20055;-68
2022/11/09 05:39:59;;;;;;;10.90;1.65;;;;;;;;;;5101832;28;20055;-68
2022/11/09 05:42:26;;;;;;;5.45;1.85;;;;;;;;;;5100643;27;20399;-68
2022/11/09 05:44:52;;;;;;;7.70;1.15;;;;;;;;;;5102194;27;20865;-68
2022/11/09 05:47:19;;;;;;;6.63;1.40;;;;;;;;;;5103596;27;20687;-68
2022/11/09 05:49:45;;;;;;;6.97;1.55;;;;;;;;;;5101592;28;20048;-68
2022/11/09 05:52:12;;;;;;;8.15;1.60;;;;;;;;;;5101644;28;20063;-68
2022/11/09 05:54:38;;;;;;;10.60;1.80;;;;;;;;;;5101412;27;20089;-68
2022/11/09 05:57:04;;;;;;;10.25;1.95;;;;;;;;;;5101380;28;20048;-68
2022/11/09 05:59:31;;;;;;;6.53;1.98;;;;;;;;;;5100515;28;20537;-68
2022/11/09 06:01:57;;;;;;;6.85;2.08;;;;;;;;;;5101278;27;20048;-68
2022/11/09 06:04:23;;;;;;;6.18;1.35;;;;;;;;;;5102096;28;20086;-68
2022/11/09 06:06:50;;;;;;;8.38;2.17;;;;;;;;;;5102636;28;20060;-68
2022/11/09 06:09:16;;;;;;;6.15;2.15;;;;;;;;;;5102102;28;20051;-68
2022/11/09 06:11:42;;;;;;;9.52;1.80;;;;;;;;;;5091683;28;20056;-68
2022/11/09 06:14:09;;;;;;;6.47;1.60;;;;;;;;;;5102959;28;20048;-68
2022/11/09 06:16:35;;;;;;;9.98;1.75;;;;;;;;;;5103556;28;20056;-68
2022/11/09 06:19:02;;;;;;;7.68;1.45;;;;;;;;;;5115173;27;20055;-68
2022/11/09 06:21:28;;;;;;;4.25;1.55;;;;;;;;;;5124135;27;20055;-68
2022/11/09 06:23:54;;;;;;;7.28;1.52;;;;;;;;;;5113810;27;20055;-68
2022/11/09 06:26:20;;;;;;;7.40;1.30;;;;;;;;;;5102665;28;20048;-68
2022/11/09 06:28:47;;;;;;;10.77;2.10;;;;;;;;;;5103167;28;20110;-68
2022/11/09 06:31:14;;;;;;;6.13;1.67;;;;;;;;;;5100505;28;20052;-68
2022/11/09 06:33:41;;;;;;;10.98;1.90;;;;;;;;;;5093811;28;20589;-68
2022/11/09 06:36:08;;;;;;;9.18;1.63;;;;;;;;;;5102833;28;20059;-68
2022/11/09 06:38:34;;;;;;;14.27;2.55;;;;;;;;;;5092493;28;20087;-68
2022/11/09 06:41:01;;;;;;;10.13;1.75;;;;;;;;;;5073042;28;20048;-68
2022/11/09 06:43:27;;;;;;;7.07;2.17;;;;;;;;;;5087021;28;20060;-68
2022/11/09 06:45:53;;;;;;;5.45;1.60;;;;;;;;;;5096011;28;20159;-68
2022/11/09 06:48:20;;;;;;;9.40;1.95;;;;;;;;;;5087163;28;20436;-68
2022/11/09 06:50:46;;;;;;;7.13;2.00;;;;;;;;;;5076665;28;20450;-68
2022/11/09 06:53:13;;;;;;;14.93;2.42;;;;;;;;;;5066909;28;20044;-68
2022/11/09 06:55:41;;;;;;;12.75;2.13;;;;;;;;;;5092571;28;20055;-58
2022/11/09 06:58:15;;;;;;;9.55;2.30;;;;;;;;;;5095783;28;20056;-67
2022/11/09 07:00:42;;;;;;;5.60;1.80;;;;;;;;;;5095337;28;20171;-68
2022/11/09 07:03:18;;;;;;;8.05;1.83;;;;;;;;;;5095137;28;20052;-67
2022/11/09 07:05:46;;;;;;;6.30;1.85;;;;;;;;;;5097817;27;20078;-68
2022/11/09 07:08:12;;;;;;;9.43;2.22;;;;;;;;;;5100497;28;20052;-68
2022/11/09 07:10:39;;;;;;;8.57;2.35;;;;;;;;;;5100418;27;20048;-67
2022/11/09 07:13:06;;;;;;;13.05;2.63;;;;;;;;;;5096789;28;20533;-67
2022/11/09 07:15:33;;;;;;;6.47;2.08;;;;;;;;;;5087706;28;20463;-67
2022/11/09 07:18:00;;;;;;;6.72;1.75;;;;;;;;;;5099101;28;20052;-68
2022/11/09 07:20:27;;;;;;;9.77;2.33;;;;;;;;;;5092558;28;20465;-67
2022/11/09 07:22:53;;;;;;;8.90;3.05;;;;;;;;;;5079122;28;20548;-68
2022/11/09 07:25:20;;;;;;;9.95;2.53;;;;;;;;;;5102145;28;20048;-68
2022/11/09 07:27:47;;;;;;;7.82;1.98;;;;;;;;;;5079929;28;20052;-68
2022/11/09 07:30:13;;;;;;;15.23;2.08;;;;;;;;;;5075553;28;20478;-67
2022/11/09 07:32:40;;;;;;;21.30;3.28;;;;;;;;;;5084693;28;20545;-68
2022/11/09 07:35:27;;;;;;;9.63;1.80;;;;;;;;;;5094371;28;20104;-67
2022/11/09 07:37:53;;;;;;;14.25;2.10;;;;;;;;;;5101346;28;20589;-67
2022/11/09 07:40:20;;;;;;;7.18;2.58;;;;;;;;;;5070336;28;20088;-67
2022/11/09 07:42:46;;;;;;;7.10;1.77;;;;;;;;;;5097312;27;20083;-67
2022/11/09 07:45:12;;;;;;;87.05;12.98;;;;;;;;;;5101277;28;20044;-68
2022/11/09 07:47:39;;;;;;;26.90;4.30;;;;;;;;;;5104681;28;20544;-67
2022/11/09 07:50:05;;;;;;;17.73;2.35;;;;;;;;;;5104018;28;20539;-67
2022/11/09 07:52:31;;;;;;;11.27;1.98;;;;;;;;;;5105042;28;20063;-67
2022/11/09 07:54:58;;;;;;;10.27;2.83;;;;;;;;;;5086163;28;20090;-67
2022/11/09 07:57:24;;;;;;;20.25;2.35;;;;;;;;;;5101971;28;20065;-67
2022/11/09 07:59:52;;;;;;;13.35;2.33;;;;;;;;;;5096726;27;20045;-68
2022/11/09 08:02:18;;;;;;;12.20;2.25;;;;;;;;;;5088504;28;20056;-68
2022/11/09 08:04:45;;;;;;;16.40;3.08;;;;;;;;;;5099582;28;20095;-68
2022/11/09 08:07:11;;;;;;;12.13;2.42;;;;;;;;;;5096594;28;20052;-67
2022/11/09 08:09:38;;;;;;;10.55;2.78;;;;;;;;;;5069108;28;20075;-67
2022/11/09 08:12:04;;;;;;;11.30;2.75;;;;;;;;;;5084274;28;20522;-68
2022/11/09 08:14:32;;;;;;;5.43;1.98;;;;;;;;;;5102544;28;20599;-67
2022/11/09 08:16:58;;;;;;;12.88;2.80;;;;;;;;;;5103031;28;20289;-68
2022/11/09 08:19:25;;;;;;;11.88;2.70;;;;;;;;;;5102192;27;20588;-67
2022/11/09 08:21:56;;;;;;;10.18;2.55;;;;;;;;;;5096263;28;20051;-67
2022/11/09 08:24:22;;;;;;;9.82;2.53;;;;;;;;;;5096278;28;20073;-68
2022/11/09 08:26:48;;;;;;;9.48;2.63;;;;;;;;;;5095991;28;20446;-67
2022/11/09 08:29:15;;;;;;;9.52;2.72;;;;;;;;;;5089638;28;20097;-67
2022/11/09 08:31:41;;;;;;;10.13;2.80;;;;;;;;;;5086081;28;20075;-67
2022/11/09 08:34:13;;;;;;;14.10;4.07;;;;;;;;;;5090720;28;20052;-67
2022/11/09 08:36:39;;;;;;;183.00;21.13;;;;;;;;;;5097401;28;20059;-67
2022/11/09 08:39:06;;;;;;;19.58;3.17;;;;;;;;;;5094577;28;20075;-67
2022/11/09 08:41:32;;;;;;;9.18;3.22;;;;;;;;;;5092372;28;20058;-68
2022/11/09 08:43:59;;;;;;;13.25;2.88;;;;;;;;;;5101346;28;20052;-68
2022/11/09 08:46:25;;;;;;;9.85;2.70;;;;;;;;;;5100972;28;20529;-68
2022/11/09 08:48:51;;;;;;;8.73;2.40;;;;;;;;;;5100341;28;20464;-67
2022/11/09 08:51:18;;;;;;;16.00;2.67;;;;;;;;;;5100363;28;20044;-67
2022/11/09 08:53:44;;;;;;;7.43;2.33;;;;;;;;;;5096706;28;20052;-67
2022/11/09 08:56:11;;;;;;;11.50;2.95;;;;;;;;;;5097185;28;20048;-67
2022/11/09 08:58:38;;;;;;;6.97;2.97;;;;;;;;;;5100473;28;20055;-67
2022/11/09 09:01:08;;;;;;;17.23;2.80;;;;;;;;;;5100024;28;20052;-67
2022/11/09 09:03:42;;;;;;;16.08;2.95;;;;;;;;;;5087586;28;20059;-67
2022/11/09 09:06:08;;;;;;;11.05;2.70;;;;;;;;;;5097166;28;20048;-68
2022/11/09 09:08:34;;;;;;;12.38;2.95;;;;;;;;;;5102230;28;20059;-67
2022/11/09 09:11:02;;;;;;;6.85;2.33;;;;;;;;;;5086873;28;20496;-67
2022/11/09 09:13:28;;;;;;;16.65;2.47;;;;;;;;;;5090121;28;20138;-67
2022/11/09 09:15:55;;;;;;;11.13;2.83;;;;;;;;;;5091111;28;20051;-67
2022/11/09 09:18:21;;;;;;;10.70;2.88;;;;;;;;;;5100919;28;20055;-67
2022/11/09 09:20:48;;;;;;;8.95;2.67;;;;;;;;;;5099895;28;20116;-67
2022/11/09 09:23:15;;;;;;;5.55;2.35;;;;;;;;;;5093245;28;20056;-67
2022/11/09 09:25:42;;;;;;;9.93;2.65;;;;;;;;;;5082338;28;20049;-67
2022/11/09 09:28:08;;;;;;;12.63;3.33;;;;;;;;;;5096955;28;20056;-67
2022/11/09 09:30:36;;;;;;;9.43;3.15;;;;;;;;;;5095065;28;20084;-67
2022/11/09 09:33:02;;;;;;;17.50;3.80;;;;;;;;;;5094139;28;20044;-67
2022/11/09 09:35:28;;;;;;;9.68;3.08;;;;;;;;;;5097373;28;20536;-67
2022/11/09 09:37:56;;;;;;;9.77;3.22;;;;;;;;;;5091938;28;20529;-67
2022/11/09 09:40:33;;;;;;;5.95;2.22;;;;;;;;;;5093938;28;20091;-67
2022/11/09 09:43:00;;;;;;;9.68;3.33;;;;;;;;;;5082614;28;20052;-67
2022/11/09 09:45:28;;;;;;;11.35;3.03;;;;;;;;;;5102358;28;20048;-67
2022/11/09 09:48:19;;;;;;;8.10;3.20;;;;;;;;;;5073265;28;20582;-67
2022/11/09 09:50:49;;;;;;;11.27;3.42;;;;;;;;;;5094999;28;20080;-67
2022/11/09 09:53:30;;;;;;;10.10;3.42;;;;;;;;;;5098355;28;20511;-67
2022/11/09 09:56:15;;;;;;;7.20;3.20;;;;;;;;;;5099592;28;20411;-67
2022/11/09 09:58:45;;;;;;;9.90;3.33;;;;;;;;;;5096252;27;20044;-68
2022/11/09 10:01:15;;;;;;;13.43;2.88;;;;;;;;;;5100749;27;20263;-67
2022/11/09 10:03:42;;;;;;;12.10;3.55;;;;;;;;;;5098043;28;20055;-67
2022/11/09 10:06:27;;;;;;;12.98;3.17;;;;;;;;;;5100264;28;20231;-67
2022/11/09 10:08:53;;;;;;;12.55;3.03;;;;;;;;;;5095087;28;20059;-67
2022/11/09 10:11:35;;;;;;;10.23;3.20;;;;;;;;;;5091817;28;20057;-67
2022/11/09 10:14:06;;;;;;;11.57;2.80;;;;;;;;;;5092671;28;20096;-67
2022/11/09 10:16:56;;;;;;;8.77;3.53;;;;;;;;;;5097555;28;20048;-68
2022/11/09 10:19:22;;;;;;;12.27;3.00;;;;;;;;;;5095606;28;20056;-67
2022/11/09 10:22:07;;;;;;;10.60;2.90;;;;;;;;;;5097818;28;20055;-66
2022/11/09 10:24:36;;;;;;;10.15;2.75;;;;;;;;;;5090505;28;20059;-67
2022/11/09 10:27:24;;;;;;;113.35;14.15;;;;;;;;;;5097596;28;20402;-67
2022/11/09 10:29:51;;;;;;;41.95;5.80;;;;;;;;;;5100281;28;20494;-68
2022/11/09 10:32:17;;;;;;;42.20;7.57;;;;;;;;;;5101832;28;20055;-67
2022/11/09 10:34:46;;;;;;;9.30;3.38;;;;;;;;;;5097277;28;20877;-66
2022/11/09 10:37:15;;;;;;;25.10;3.47;;;;;;;;;;5092817;28;20455;-66
2022/11/09 10:39:50;;;;;;;12.40;3.17;;;;;;;;;;5100290;28;20079;-66
2022/11/09 10:42:16;;;;;;;7.63;2.83;;;;;;;;;;5080771;28;20130;-68
2022/11/09 10:44:43;;;;;;;10.15;2.58;;;;;;;;;;5099159;28;20098;-67
2022/11/09 10:47:11;;;;;;;8.77;2.50;;;;;;;;;;5105627;28;20059;-68
2022/11/09 10:49:38;;;;;;;11.25;2.88;;;;;;;;;;5102068;28;20052;-67
2022/11/09 10:52:05;;;;;;;13.10;2.70;;;;;;;;;;5092989;28;20056;-69
2022/11/09 10:54:34;;;;;;;8.82;2.45;;;;;;;;;;5102211;28;20884;-66
2022/11/09 10:57:10;;;;;;;8.88;2.28;;;;;;;;;;5100076;28;20153;-66
2022/11/09 10:59:49;;;;;;;9.75;2.90;;;;;;;;;;5103998;28;20059;-67
2022/11/09 11:02:24;;;;;;;15.38;2.72;;;;;;;;;;5105258;28;20051;-66
2022/11/09 11:05:13;;;;;;;7.70;2.65;;;;;;;;;;5093912;28;20048;-68
2022/11/09 11:07:40;;;;;;;11.98;3.00;;;;;;;;;;5092969;28;20440;-67
2022/11/09 11:10:15;;;;;;;12.50;3.80;;;;;;;;;;5096693;28;20044;-68
2022/11/09 11:12:42;;;;;;;14.75;3.03;;;;;;;;;;5103952;28;20048;-69
2022/11/09 11:15:22;;;;;;;16.75;3.35;;;;;;;;;;5104943;28;20055;-69
2022/11/09 11:17:49;;;;;;;7.72;2.70;;;;;;;;;;5102471;28;20059;-68
2022/11/09 11:20:36;;;;;;;7.88;2.42;;;;;;;;;;5094189;28;20129;-68
2022/11/09 11:23:08;;;;;;;9.88;2.22;;;;;;;;;;5084265;28;20059;-66
2022/11/09 11:25:38;;;;;;;6.72;2.17;;;;;;;;;;5091089;28;20517;-66
2022/11/09 11:28:14;;;;;;;12.18;2.65;;;;;;;;;;5083361;28;20052;-66
2022/11/09 11:30:40;;;;;;;11.80;2.58;;;;;;;;;;5104287;28;20524;-68
2022/11/09 11:33:12;;;;;;;9.13;2.25;;;;;;;;;;5100267;28;20055;-69
2022/11/09 11:35:42;;;;;;;8.90;2.08;;;;;;;;;;5095054;28;20052;-68
2022/11/09 11:38:12;;;;;;;8.13;2.10;;;;;;;;;;5105306;28;20056;-68
2022/11/09 11:40:47;;;;;;;9.60;2.40;;;;;;;;;;5103207;28;20515;-69
2022/11/09 11:43:13;;;;;;;7.20;2.50;;;;;;;;;;5096660;28;20559;-68
2022/11/09 11:45:41;;;;;;;10.20;2.40;;;;;;;;;;5097939;28;20048;-68
2022/11/09 11:48:24;;;;;;;6.43;1.88;;;;;;;;;;5103407;28;20080;-68
2022/11/09 11:51:09;;;;;;;8.20;2.60;;;;;;;;;;5101335;28;20518;-68
2022/11/09 11:53:39;;;;;;;10.10;2.72;;;;;;;;;;5098890;28;20056;-68
2022/11/09 11:56:27;;;;;;;5.32;1.70;;;;;;;;;;5096474;28;20132;-68
2022/11/09 11:58:56;;;;;;;8.95;2.05;;;;;;;;;;5103004;27;20102;-68
2022/11/09 12:01:29;;;;;;;7.25;1.60;;;;;;;;;;5096987;28;20062;-67
2022/11/09 12:04:01;;;;;;;4.68;0.90;;;;;;;;;;5103165;28;20076;-67
2022/11/09 12:06:32;;;;;;;6.03;1.48;;;;;;;;;;5102818;28;20055;-68
2022/11/09 12:09:17;;;;;;;18.58;3.15;;;;;;;;;;5102128;28;20688;-68
2022/11/09 12:12:02;;;;;;;33.55;3.75;;;;;;;;;;5091588;28;20044;-67
2022/11/09 12:14:41;;;;;;;36.38;4.53;;;;;;;;;;5102485;28;20055;-66
2022/11/09 12:17:14;;;;;;;81.80;8.50;;;;;;;;;;5101867;28;20063;-67
2022/11/09 12:19:59;;;;;;;29.90;4.38;;;;;;;;;;5103828;28;20059;-68
2022/11/09 12:22:37;;;;;;;11.77;1.88;;;;;;;;;;5083158;28;20516;-67
2022/11/09 12:25:24;;;;;;;38.85;4.03;;;;;;;;;;5064734;28;20150;-67
2022/11/09 12:27:50;;;;;;;8.68;1.88;;;;;;;;;;5102673;28;20060;-74
2022/11/09 12:30:19;;;;;;;7.30;2.03;;;;;;;;;;5104431;28;20055;-77
2022/11/09 12:32:46;;;;;;;11.00;2.60;;;;;;;;;;5084663;28;20049;-75
2022/11/09 12:35:31;;;;;;;5.43;2.60;;;;;;;;;;5102078;28;20082;-74
2022/11/09 12:38:01;;;;;;;6.88;2.20;;;;;;;;;;5103179;28;20075;-74
2022/11/09 12:40:38;;;;;;;11.02;2.38;;;;;;;;;;5091298;28;20048;-74
2022/11/09 12:43:14;;;;;;;6.53;2.10;;;;;;;;;;5091712;28;20054;-74
2022/11/09 12:45:42;;;;;;;7.47;2.22;;;;;;;;;;5101947;28;20059;-74
2022/11/09 12:48:14;;;;;;;6.80;2.10;;;;;;;;;;5104825;28;20051;-76
2022/11/09 12:50:41;;;;;;;7.07;2.25;;;;;;;;;;5104721;28;20059;-76
2022/11/09 12:53:07;;;;;;;7.35;3.03;;;;;;;;;;5102679;28;20048;-78
2022/11/09 12:55:38;;;;;;;8.00;2.33;;;;;;;;;;5086741;28;20058;-75
2022/11/09 12:58:05;;;;;;;8.45;2.38;;;;;;;;;;5105090;28;20051;-79
2022/11/09 13:00:34;;;;;;;6.45;2.08;;;;;;;;;;5104172;28;20045;-75
2022/11/09 13:03:03;;;;;;;6.25;1.90;;;;;;;;;;5083481;28;20052;-84
2022/11/09 13:05:36;;;;;;;6.35;1.98;;;;;;;;;;5104271;27;20552;-76
2022/11/09 13:08:04;;;;;;;21.80;2.55;;;;;;;;;;5093645;28;20048;-81
2022/11/09 13:10:34;;;;;;;7.40;1.90;;;;;;;;;;5092036;28;20058;-77
2022/11/09 13:13:10;;;;;;;5.10;1.83;;;;;;;;;;5101771;28;20055;-79
2022/11/09 13:15:59;;;;;;;3.72;1.67;;;;;;;;;;5086708;28;20056;-79
2022/11/09 13:18:26;;;;;;;9.95;1.70;;;;;;;;;;5019567;28;20050;-81
2022/11/09 13:20:52;;;;;;;7.93;1.77;;;;;;;;;;5020932;28;20141;-77
2022/11/09 13:23:24;;;;;;;4.13;1.60;;;;;;;;;;5020436;28;20496;-78
2022/11/09 13:26:29;;;;;;;7.72;1.60;;;;;;;;;;5011235;28;20049;-79
2022/11/09 13:29:07;;;;;;;2.78;1.40;;;;;;;;;;5020367;28;20350;-77
2022/11/09 13:31:52;;;;;;;15.32;1.77;;;;;;;;;;5036376;28;20049;-78
2022/11/09 13:34:57;;;;;;;3.38;1.38;;;;;;;;;;5023627;28;20062;-72
2022/11/09 13:37:44;;;;;;;6.75;1.88;;;;;;;;;;4980997;28;20063;-76
2022/11/09 13:40:29;;;;;;;4.35;1.30;;;;;;;;;;4978400;28;20058;-73
2022/11/09 13:43:07;;;;;;;3.72;1.27;;;;;;;;;;4977315;28;20051;-79
2022/11/09 13:45:33;;;;;;;5.43;1.27;;;;;;;;;;4981200;28;20219;-77
2022/11/09 13:48:00;;;;;;;3.40;1.20;;;;;;;;;;4977905;28;20054;-74
2022/11/09 13:50:31;;;;;;;6.13;1.38;;;;;;;;;;4980237;28;20054;-72
2022/11/09 13:52:58;;;;;;;6.18;1.80;;;;;;;;;;4977991;28;20047;-74
2022/11/09 13:55:28;;;;;;;7.05;1.25;;;;;;;;;;4987744;28;20061;-74
2022/11/09 13:57:57;;;;;;;10.73;1.45;;;;;;;;;;5000563;28;20563;-76
2022/11/09 14:00:24;;;;;;;4.78;1.00;;;;;;;;;;4998549;28;20058;-75
2022/11/09 14:02:52;;;;;;;3.60;1.15;;;;;;;;;;4997196;28;20046;-76
2022/11/09 14:05:22;;;;;;;5.05;1.30;;;;;;;;;;5000753;28;20059;-76
2022/11/09 14:07:48;;;;;;;6.75;1.35;;;;;;;;;;5028613;28;20565;-75
2022/11/09 14:10:38;;;;;;;6.20;1.40;;;;;;;;;;5091537;28;20055;-73
2022/11/09 14:13:14;;;;;;;6.47;1.30;;;;;;;;;;5100823;28;20056;-73
2022/11/09 14:15:40;;;;;;;;;;;;;;;;;;5099610;28;20048;-74
2022/11/09 14:18:25;;;;;;;5.18;0.95;;;;;;;;;;5101374;27;42474;-73
2022/11/09 14:21:07;;;;;;;7.25;1.30;;;;;;;;;;5089139;27;20059;-74
2022/11/09 14:23:33;;;;;;;2.97;0.90;;;;;;;;;;5098370;28;20040;-76
2022/11/09 14:26:15;;;;;;;3.53;1.08;;;;;;;;;;5102772;28;20063;-76
2022/11/09 14:28:41;;;;;;;6.63;1.25;;;;;;;;;;5095379;27;20517;-74
2022/11/09 14:31:24;;;;;;;7.50;1.20;;;;;;;;;;5089083;28;20110;-75
2022/11/09 14:34:14;;;;;;;8.68;1.50;;;;;;;;;;5097218;28;20048;-76
2022/11/09 14:36:40;;;;;;;3.70;1.48;;;;;;;;;;5090642;28;20055;-76
2022/11/09 14:39:34;;;;;;;4.85;1.63;;;;;;;;;;5100135;28;20055;-75
2022/11/09 14:42:00;;;;;;;7.00;1.58;;;;;;;;;;5078470;28;20045;-77
2022/11/09 14:44:34;;;;;;;10.65;1.70;;;;;;;;;;5097052;28;20052;-76
2022/11/09 14:47:02;;;;;;;5.47;1.27;;;;;;;;;;5101964;28;20056;-77
2022/11/09 14:49:28;;;;;;;7.72;1.65;;;;;;;;;;5099284;27;20056;-76
2022/11/09 14:51:54;;;;;;;4.97;1.17;;;;;;;;;;5074129;28;20554;-74
2022/11/09 14:54:23;;;;;;;6.85;1.33;;;;;;;;;;5100485;28;20059;-76